Time;durP1;ratioP1;P1;durP2;ratioP2;P2;SDS_P1;SDS_P2;PMS_P1;PMS_P2;Temp;Humidity;BMP_temperature;BMP_pressure;BME280_temperature;BME280_humidity;BME280_pressure;Samples;Min_cycle;Max_cycle;Signal;HPM_P1;HPM_P2
2022/10/24 00:00:10;;;;;;;;;37.00;31.00;;;;;13.23;100.00;99962.28;6268491;20;3609642;-69
2022/10/24 00:02:39;;;;;;;;;32.33;30.67;;;;;13.13;100.00;99966.56;6302902;20;3595107;-69
2022/10/24 00:05:12;;;;;;;;;34.00;28.33;;;;;13.15;100.00;99975.41;6275112;20;3601357;-68
2022/10/24 00:07:41;;;;;;;;;30.67;26.67;;;;;13.16;100.00;99971.72;6264933;20;3596290;-69
2022/10/24 00:10:13;;;;;;;;;32.67;30.67;;;;;13.18;100.00;99959.03;6273667;20;3590896;-69
2022/10/24 00:12:41;;;;;;;;;33.67;29.00;;;;;13.12;100.00;99954.06;6273199;20;3590940;-68
2022/10/24 00:15:12;;;;;;;;;32.00;30.67;;;;;13.12;100.00;99956.75;6271785;20;3601417;-69
2022/10/24 00:17:41;;;;;;;;;36.33;28.00;;;;;13.05;100.00;99958.13;6303405;20;3589904;-69
2022/10/24 00:20:11;;;;;;;;;34.67;27.67;;;;;12.94;100.00;99954.31;6269947;20;3608635;-68
2022/10/24 00:22:39;;;;;;;;;37.00;28.00;;;;;12.93;100.00;99968.78;6302400;20;3628484;-69
2022/10/24 00:25:09;;;;;;;;;35.00;26.67;;;;;12.98;100.00;99967.59;6271634;20;3579457;-69
2022/10/24 00:27:38;;;;;;;;;35.00;28.67;;;;;12.96;100.00;99968.56;6262366;20;2854468;-68
2022/10/24 00:30:08;;;;;;;;;32.00;27.67;;;;;12.90;100.00;99960.91;6298792;20;2851346;-68
2022/10/24 00:32:37;;;;;;;;;33.33;30.33;;;;;12.73;100.00;99963.84;6303736;20;3605475;-68
2022/10/24 00:35:07;;;;;;;;;37.00;32.67;;;;;12.74;100.00;99968.25;6269573;20;3595066;-70
2022/10/24 00:37:35;;;;;;;;;36.67;33.00;;;;;12.42;100.00;99965.81;6267214;20;3618977;-70
2022/10/24 00:40:06;;;;;;;;;33.67;27.00;;;;;12.42;100.00;99959.59;6266578;20;3605458;-70
2022/10/24 00:42:36;;;;;;;;;37.67;27.33;;;;;12.41;100.00;99963.25;6298022;20;3626396;-69
2022/10/24 00:45:49;;;;;;;;;20.33;18.33;;;;;12.47;100.00;99955.63;6300584;20;3528388;-69
2022/10/24 00:48:42;;;;;;;;;30.00;27.00;;;;;12.59;100.00;99953.13;6300146;20;3588922;-69
2022/10/24 00:51:28;;;;;;;;;28.50;25.50;;;;;12.58;100.00;99954.06;6269496;20;2836839;-69
2022/10/24 00:54:04;;;;;;;;;27.00;23.00;;;;;12.49;100.00;99944.75;6266525;20;2830513;-69
2022/10/24 00:56:54;;;;;;;;;35.00;28.00;;;;;12.33;100.00;99949.44;6267528;20;3607690;-68
2022/10/24 00:59:24;;;;;;;;;30.33;28.33;;;;;12.37;100.00;99961.72;6300299;20;3591987;-68
2022/10/24 01:01:52;;;;;;;;;34.67;28.67;;;;;12.28;100.00;99952.41;6264261;20;3608636;-69
2022/10/24 01:04:22;;;;;;;;;25.33;23.00;;;;;12.28;100.00;99942.50;6268105;20;2842097;-69
2022/10/24 01:07:54;;;;;;;;;30.50;28.50;;;;;12.38;100.00;99942.78;6297236;20;2837783;-69
2022/10/24 01:11:05;;;;;;;;;33.33;27.67;;;;;12.42;100.00;99944.28;6267638;20;3616990;-68
2022/10/24 01:14:31;;;;;;;;;37.25;28.25;;;;;12.00;100.00;99948.78;6269347;20;3623250;-70
2022/10/24 01:17:44;;;;;;;;;36.67;29.00;;;;;11.82;100.00;99940.03;6299266;20;3594206;-69
2022/10/24 01:21:07;;;;;;;;;32.00;28.67;;;;;11.97;100.00;99943.59;6266064;20;3606589;-69
2022/10/24 01:24:12;;;;;;;;;35.00;33.33;;;;;12.14;100.00;99955.09;6289576;20;3604457;-68
2022/10/24 01:27:05;;;;;;;;;29.00;24.00;;;;;12.16;100.00;99934.34;6264002;20;2853651;-69
2022/10/24 01:29:54;;;;;;;;;35.00;32.00;;;;;12.00;100.00;99926.38;6261811;20;3616121;-69
2022/10/24 01:32:38;;;;;;;;;36.00;29.67;;;;;12.05;100.00;99930.50;6263943;20;3613798;-68
2022/10/24 01:35:39;;;;;;;;;33.00;29.33;;;;;12.06;100.00;99932.25;6304320;20;3609635;-70
2022/10/24 01:38:51;;;;;;;;;36.67;31.00;;;;;12.05;100.00;99930.50;6271099;20;2863907;-69
2022/10/24 01:41:27;;;;;;;;;39.67;26.33;;;;;12.08;100.00;99924.06;6300296;20;3631801;-69
2022/10/24 01:44:06;;;;;;;;;33.33;31.00;;;;;12.02;100.00;99922.63;6307521;20;3610837;-69
2022/10/24 01:46:54;;;;;;;;;37.67;31.00;;;;;12.15;100.00;99919.16;6273345;20;3587867;-70
2022/10/24 01:49:31;;;;;;;;;36.33;30.67;;;;;12.05;100.00;99922.44;6270786;20;2844064;-69
2022/10/24 01:52:06;;;;;;;;;32.33;28.33;;;;;11.92;100.00;99921.47;6304770;20;3600323;-69
2022/10/24 01:54:38;;;;;;;;;36.00;30.00;;;;;11.75;100.00;99927.06;6273054;20;3614821;-69
2022/10/24 01:57:07;;;;;;;;;29.33;25.67;;;;;11.78;100.00;99937.63;6271691;20;2850363;-68
2022/10/24 01:59:47;;;;;;;;;29.33;27.67;;;;;11.87;100.00;99945.13;6300047;20;2846209;-69
2022/10/24 02:02:32;;;;;;;;;35.33;31.00;;;;;11.93;100.00;99942.06;6301399;20;3613810;-69
2022/10/24 02:05:35;;;;;;;;;32.00;29.67;;;;;12.07;100.00;99933.97;6272367;20;3592137;-69
2022/10/24 02:08:12;;;;;;;;;35.67;28.67;;;;;12.11;100.00;99928.38;6269931;20;3619028;-70
2022/10/24 02:10:52;;;;;;;;;32.67;30.67;;;;;12.14;100.00;99921.00;6303787;20;3584887;-70
2022/10/24 02:13:52;;;;;;;;;15.60;10.00;;;;;12.12;100.00;99924.75;6288705;20;2802479;-69
2022/10/24 02:16:21;;;;;;;;;41.67;31.33;;;;;12.09;100.00;99915.03;6269661;20;3603373;-69
2022/10/24 02:18:54;;;;;;;;;30.67;29.33;;;;;12.03;100.00;99910.94;6273566;20;3597124;-69
2022/10/24 02:21:52;;;;;;;;;37.33;28.00;;;;;11.97;100.00;99918.50;6302272;20;3615930;-69
2022/10/24 02:24:30;;;;;;;;;41.00;32.00;;;;;11.92;100.00;99912.56;6305974;20;3598331;-69
2022/10/24 02:27:15;;;;;;;;;39.33;31.00;;;;;11.73;100.00;99913.69;6271463;20;3597538;-69
2022/10/24 02:29:57;;;;;;;;;49.00;39.00;;;;;11.62;100.00;99908.13;6304990;20;3600295;-70
2022/10/24 02:32:35;;;;;;;;;42.00;34.00;;;;;11.80;100.00;99900.72;6263691;20;3602382;-69
2022/10/24 02:35:07;;;;;;;;;38.33;33.00;;;;;11.81;100.00;99902.44;6305519;20;3608625;-69
2022/10/24 02:37:48;;;;;;;;;35.00;31.67;;;;;11.67;100.00;99906.00;6274366;20;3618087;-68
2022/10/24 02:40:19;;;;;;;;;42.00;33.67;;;;;11.75;100.00;99905.53;6274538;20;3592994;-68
2022/10/24 02:42:54;;;;;;;;;44.33;34.67;;;;;11.61;100.00;99899.19;6270670;20;3592030;-69
2022/10/24 02:45:23;;;;;;;;;35.00;30.50;;;;;11.61;100.00;99899.19;6267339;20;2496140;-69
2022/10/24 02:48:02;;;;;;;;;41.00;34.00;;;;;11.61;100.00;99901.00;6268811;20;2836888;-70
2022/10/24 02:50:32;;;;;;;;;48.67;35.00;;;;;11.42;100.00;99901.28;6270045;20;3614907;-68
2022/10/24 02:53:01;;;;;;;;;39.67;34.67;;;;;11.46;100.00;99905.53;6309741;20;3581659;-69
2022/10/24 02:55:30;;;;;;;;;46.00;36.00;;;;;11.44;100.00;99904.75;6267767;20;3597259;-68
2022/10/24 02:58:00;;;;;;;;;45.67;34.67;;;;;11.53;100.00;99904.19;6302378;20;2853517;-69
2022/10/24 03:00:29;;;;;;;;;41.00;34.00;;;;;11.57;100.00;99897.63;6302440;20;3597162;-70
2022/10/24 03:02:58;;;;;;;;;49.33;34.00;;;;;11.57;100.00;99905.72;6269696;20;3624341;-70
2022/10/24 03:05:27;;;;;;;;;45.67;35.00;;;;;11.60;100.00;99907.34;6303683;20;3600257;-69
2022/10/24 03:07:56;;;;;;;;;42.67;34.67;;;;;11.48;100.00;99890.16;6269102;20;2868179;-69
2022/10/24 03:10:26;;;;;;;;;45.67;36.00;;;;;11.43;100.00;99890.44;6304878;20;3574235;-69
2022/10/24 03:12:55;;;;;;;;;49.67;37.67;;;;;11.46;100.00;99904.66;6266426;20;3611773;-70
2022/10/24 03:15:24;;;;;;;;;47.33;36.00;;;;;11.56;100.00;99901.31;6299134;20;3604216;-68
2022/10/24 03:17:52;;;;;;;;;48.33;34.33;;;;;11.36;100.00;99907.91;6273422;20;3603415;-70
2022/10/24 03:20:23;;;;;;;;;50.00;37.00;;;;;11.41;100.00;99891.50;6273027;20;2866100;-68
2022/10/24 03:22:52;;;;;;;;;27.33;23.33;;;;;11.39;100.00;99893.41;6288121;20;3564954;-68
2022/10/24 03:25:21;;;;;;;;;45.00;35.33;;;;;11.33;100.00;99885.72;6262933;20;3605502;-69
2022/10/24 03:27:50;;;;;;;;;31.33;27.00;;;;;11.39;100.00;99888.03;6299958;20;3596092;-70
2022/10/24 03:30:19;;;;;;;;;40.00;35.50;;;;;11.37;100.00;99882.75;6272973;20;2844044;-69
2022/10/24 03:32:48;;;;;;;;;46.67;38.33;;;;;11.45;100.00;99876.03;6272565;20;2845168;-68
2022/10/24 03:35:17;;;;;;;;;40.67;33.33;;;;;11.40;100.00;99873.63;6304703;20;3604441;-68
2022/10/24 03:37:47;;;;;;;;;52.67;36.33;;;;;11.53;100.00;99873.72;6266722;20;3615910;-69
2022/10/24 03:40:16;;;;;;;;;43.00;35.00;;;;;11.37;100.00;99887.25;6302151;20;2864896;-69
2022/10/24 03:42:45;;;;;;;;;42.00;35.33;;;;;11.28;100.00;99890.53;6301848;20;3580704;-69
2022/10/24 03:45:15;;;;;;;;;44.67;36.00;;;;;11.30;100.00;99893.97;6268600;20;2856520;-69
2022/10/24 03:47:45;;;;;;;;;48.33;38.33;;;;;11.25;100.00;99886.19;6301584;20;3608726;-70
2022/10/24 03:50:13;;;;;;;;;44.33;34.00;;;;;11.32;100.00;99883.97;6303253;20;3612782;-69
2022/10/24 03:52:43;;;;;;;;;39.67;34.67;;;;;11.40;100.00;99879.88;6268148;20;2859016;-69
2022/10/24 03:55:12;;;;;;;;;45.50;37.50;;;;;11.47;100.00;99879.50;6301714;20;2857697;-68
2022/10/24 03:57:41;;;;;;;;;42.00;33.33;;;;;11.35;100.00;99865.84;6266902;20;3605738;-68
2022/10/24 04:00:11;;;;;;;;;43.00;33.67;;;;;11.43;100.00;99866.25;6266632;20;3606639;-69
2022/10/24 04:02:40;;;;;;;;;39.00;33.00;;;;;11.29;100.00;99876.09;6302233;20;3589823;-69
2022/10/24 04:05:13;;;;;;;;;39.67;32.00;;;;;11.38;100.00;99875.56;6269844;20;3628448;-69
2022/10/24 04:07:42;;;;;;;;;36.33;32.00;;;;;11.29;100.00;99876.09;6302100;20;3608773;-69
2022/10/24 04:10:11;;;;;;;;;39.00;32.67;;;;;11.45;100.00;99892.16;6299852;20;3577537;-68
2022/10/24 04:12:41;;;;;;;;;42.67;31.33;;;;;11.33;100.00;99889.28;6268777;20;3611874;-69
2022/10/24 04:15:10;;;;;;;;;40.33;34.00;;;;;11.21;100.00;99898.94;6304612;20;3591945;-69
2022/10/24 04:17:40;;;;;;;;;38.00;32.67;;;;;11.34;100.00;99901.75;6267126;20;2862930;-68
2022/10/24 04:20:10;;;;;;;;;39.00;33.00;;;;;11.37;100.00;99889.94;6302922;20;3587955;-68
2022/10/24 04:22:40;;;;;;;;;37.00;33.00;;;;;11.30;100.00;99877.84;6266176;20;2847245;-70
2022/10/24 04:25:08;;;;;;;;;37.33;32.00;;;;;11.28;100.00;99877.09;6302531;20;3585777;-69
2022/10/24 04:27:39;;;;;;;;;37.67;32.00;;;;;11.11;100.00;99884.34;6269873;20;3599234;-70
2022/10/24 04:30:13;;;;;;;;;39.00;32.00;;;;;11.25;100.00;99874.59;6300602;20;3594076;-70
2022/10/24 04:32:44;;;;;;;;;33.00;28.33;;;;;11.29;100.00;99876.09;6268461;20;3593005;-68
2022/10/24 04:35:14;;;;;;;;;34.33;29.33;;;;;11.13;100.00;99868.97;6267700;20;2861842;-69
2022/10/24 04:37:44;;;;;;;;;40.67;32.00;;;;;11.28;100.00;99874.38;6301852;20;3614902;-70
2022/10/24 04:40:13;;;;;;;;;34.33;29.67;;;;;11.29;100.00;99884.16;6304165;20;3602403;-69
2022/10/24 04:42:42;;;;;;;;;39.00;29.00;;;;;11.37;100.00;99893.53;6267571;20;2851424;-69
2022/10/24 04:45:11;;;;;;;;;35.00;33.33;;;;;11.36;100.00;99888.22;6270600;20;3604447;-69
2022/10/24 04:47:40;;;;;;;;;43.00;32.00;;;;;11.38;100.00;99889.84;6266393;20;3625350;-69
2022/10/24 04:50:10;;;;;;;;;36.67;31.33;;;;;11.45;100.00;99890.31;6302406;20;3608583;-68
2022/10/24 04:52:39;;;;;;;;;32.00;31.33;;;;;11.48;100.00;99898.22;6267094;20;3595651;-69
2022/10/24 04:55:08;;;;;;;;;37.00;31.00;;;;;11.40;100.00;99887.06;6269224;20;2854555;-68
2022/10/24 04:57:38;;;;;;;;;36.00;32.00;;;;;11.44;100.00;99883.22;6298553;20;2864031;-70
2022/10/24 05:00:08;;;;;;;;;23.67;18.00;;;;;11.47;100.00;99896.47;6298619;20;2855697;-69
2022/10/24 05:02:37;;;;;;;;;31.33;29.67;;;;;11.41;100.00;99886.13;6296284;20;3602349;-68
2022/10/24 05:05:06;;;;;;;;;36.00;31.00;;;;;11.48;100.00;99884.78;6267768;20;2806506;-68
2022/10/24 05:07:36;;;;;;;;;55.33;41.33;;;;;11.57;100.00;99881.50;6269307;20;2862348;-69
2022/10/24 05:10:05;;;;;;;;;52.67;37.00;;;;;11.59;100.00;99873.34;6304238;20;3620034;-70
2022/10/24 05:12:34;;;;;;;;;43.00;31.33;;;;;11.61;100.00;99876.78;6274078;20;3630512;-70
2022/10/24 05:15:05;;;;;;;;;48.00;37.00;;;;;11.62;100.00;99873.16;6270796;20;3613849;-68
2022/10/24 05:17:35;;;;;;;;;42.00;32.67;;;;;11.55;100.00;99863.75;6306605;20;3608729;-69
2022/10/24 05:20:06;;;;;;;;;43.00;33.67;;;;;11.32;100.00;99862.47;6272698;20;2861938;-69
2022/10/24 05:22:34;;;;;;;;;39.67;31.67;;;;;11.45;100.00;99871.50;6301670;20;3624247;-69
2022/10/24 05:25:06;;;;;;;;;40.67;34.00;;;;;11.39;100.00;99879.97;6268924;20;3606639;-69
2022/10/24 05:27:34;;;;;;;;;45.00;35.00;;;;;11.50;100.00;99863.16;6310955;20;3584670;-69
2022/10/24 05:30:04;;;;;;;;;42.00;34.50;;;;;11.43;100.00;99873.44;6271880;20;2846256;-69
2022/10/24 05:32:34;;;;;;;;;42.67;33.33;;;;;11.37;100.00;99863.94;6268183;20;3593055;-69
2022/10/24 05:35:08;;;;;;;;;35.67;31.33;;;;;11.32;100.00;99871.44;6307290;20;3578416;-68
2022/10/24 05:37:38;;;;;;;;;37.00;32.50;;;;;11.35;100.00;99871.22;6274189;20;2850368;-69
2022/10/24 05:40:10;;;;;;;;;40.00;32.00;;;;;11.45;100.00;99878.72;6277231;20;3607638;-69
2022/10/24 05:42:39;;;;;;;;;45.00;37.00;;;;;11.44;100.00;99875.16;6271386;20;2847145;-69
2022/10/24 05:45:11;;;;;;;;;40.33;32.00;;;;;11.43;100.00;99885.06;6275052;20;3617971;-68
2022/10/24 05:47:39;;;;;;;;;40.67;33.67;;;;;11.33;100.00;99891.97;6275351;20;3601332;-69
2022/10/24 05:50:09;;;;;;;;;45.33;32.00;;;;;11.43;100.00;99894.97;6274590;20;3616949;-69
2022/10/24 05:52:41;;;;;;;;;39.33;33.67;;;;;11.42;100.00;99904.81;6272647;20;3591952;-68
2022/10/24 05:55:14;;;;;;;;;31.00;29.00;;;;;11.51;100.00;99916.00;6273391;20;3604960;-68
2022/10/24 05:57:46;;;;;;;;;45.00;33.67;;;;;11.52;100.00;99915.88;6271731;20;2860707;-68
2022/10/24 06:00:17;;;;;;;;;41.00;34.50;;;;;11.46;100.00;99920.78;6305253;20;2837838;-68
2022/10/24 06:02:46;;;;;;;;;42.33;34.00;;;;;11.46;100.00;99918.97;6272925;20;3583748;-68
2022/10/24 06:05:16;;;;;;;;;37.67;29.67;;;;;11.50;100.00;99927.69;6271369;20;2857660;-68
2022/10/24 06:07:45;;;;;;;;;42.00;35.00;;;;;11.38;100.00;99930.19;6305725;20;3591949;-68
2022/10/24 06:10:16;;;;;;;;;41.67;33.33;;;;;11.55;100.00;99934.50;6273124;20;2852442;-68
2022/10/24 06:12:44;;;;;;;;;37.33;30.33;;;;;11.63;100.00;99940.28;6306299;20;3579931;-68
2022/10/24 06:15:16;;;;;;;;;43.00;33.33;;;;;11.63;100.00;99934.91;6307541;20;3600255;-68
2022/10/24 06:17:44;;;;;;;;;41.33;32.33;;;;;11.60;100.00;99929.72;6274322;20;3607671;-68
2022/10/24 06:20:14;;;;;;;;;47.33;34.67;;;;;11.59;100.00;99936.06;6271006;20;3599316;-68
2022/10/24 06:22:44;;;;;;;;;29.67;28.00;;;;;11.54;100.00;99946.25;6305790;20;3603445;-68
2022/10/24 06:25:14;;;;;;;;;42.67;34.67;;;;;11.54;100.00;99957.00;6275816;20;3603415;-68
2022/10/24 06:27:42;;;;;;;;;31.00;26.00;;;;;11.52;100.00;99952.66;6274871;20;2835700;-68
2022/10/24 06:30:11;;;;;;;;;37.33;31.33;;;;;11.51;100.00;99956.34;6270445;20;3600379;-68
2022/10/24 06:32:41;;;;;;;;;39.67;31.67;;;;;11.42;100.00;99942.47;6300637;20;3623235;-67
2022/10/24 06:35:13;;;;;;;;;46.33;35.67;;;;;11.47;100.00;99952.09;6304335;20;3601327;-68
2022/10/24 06:37:43;;;;;;;;;38.00;27.33;;;;;11.41;100.00;99951.50;6271787;20;2867046;-69
2022/10/24 06:40:17;;;;;;;;;37.33;30.67;;;;;11.58;100.00;99958.53;6306286;20;3609814;-69
2022/10/24 06:42:46;;;;;;;;;46.00;35.67;;;;;11.69;100.00;99965.97;6273321;20;3612854;-68
2022/10/24 06:45:17;;;;;;;;;39.33;31.33;;;;;11.77;100.00;99969.03;6271999;20;3594003;-69
2022/10/24 06:47:47;;;;;;;;;42.67;31.00;;;;;11.78;100.00;99960.00;6303444;20;3607678;-68
2022/10/24 06:50:21;;;;;;;;;43.33;35.00;;;;;11.74;100.00;99953.09;6257846;20;3587820;-69
2022/10/24 06:52:50;;;;;;;;;45.33;33.33;;;;;11.82;100.00;99952.59;6266764;20;3603347;-68
2022/10/24 06:55:19;;;;;;;;;42.67;34.00;;;;;11.74;100.00;99946.81;6306650;20;3595109;-69
2022/10/24 06:57:49;;;;;;;;;48.67;34.67;;;;;11.61;100.00;99935.94;6267473;20;3610646;-69
2022/10/24 07:00:18;;;;;;;;;36.33;30.67;;;;;11.62;100.00;99943.94;6301925;20;3606532;-69
2022/10/24 07:02:47;;;;;;;;;40.33;35.00;;;;;11.70;100.00;99940.78;6270527;20;2845185;-69
2022/10/24 07:05:17;;;;;;;;;39.67;33.67;;;;;11.66;100.00;99939.22;6298724;20;3601814;-67
2022/10/24 07:07:45;;;;;;;;;41.33;34.33;;;;;11.76;100.00;99939.53;6300616;20;3590874;-68
2022/10/24 07:10:15;;;;;;;;;46.67;36.67;;;;;11.84;100.00;99945.28;6272253;20;2852415;-67
2022/10/24 07:12:44;;;;;;;;;37.33;31.67;;;;;11.82;100.00;99949.91;6302015;20;3589927;-68
2022/10/24 07:15:14;;;;;;;;;45.00;32.00;;;;;11.71;100.00;99937.13;6270333;20;3633644;-69
2022/10/24 07:17:44;;;;;;;;;41.00;33.67;;;;;11.88;100.00;99927.19;6305647;20;3599236;-69
2022/10/24 07:20:14;;;;;;;;;34.67;29.00;;;;;11.98;100.00;99926.50;6267026;20;3606079;-68
2022/10/24 07:22:53;;;;;;;;;35.67;32.67;;;;;11.93;100.00;99930.41;6270643;20;2854603;-68
2022/10/24 07:25:22;;;;;;;;;43.67;35.00;;;;;11.88;100.00;99922.66;6299489;20;3594201;-68
2022/10/24 07:27:53;;;;;;;;;42.50;30.50;;;;;11.79;100.00;99917.81;6269063;20;3658778;-68
2022/10/24 07:30:22;;;;;;;;;38.67;32.33;;;;;11.84;100.00;99921.06;6303124;20;3588282;-66
2022/10/24 07:32:51;;;;;;;;;39.33;33.00;;;;;11.83;100.00;99927.44;6262682;20;2855577;-69
2022/10/24 07:35:20;;;;;;;;;39.33;32.33;;;;;11.96;100.00;99930.25;6299436;20;3611786;-68
2022/10/24 07:37:51;;;;;;;;;44.67;33.33;;;;;12.12;100.00;99919.38;6267848;20;2847691;-69
2022/10/24 07:40:21;;;;;;;;;45.33;33.67;;;;;12.16;100.00;99910.97;6289200;20;3605560;-69
2022/10/24 07:42:49;;;;;;;;;42.33;34.67;;;;;12.16;100.00;99918.19;6302444;20;3586849;-70
2022/10/24 07:45:18;;;;;;;;;39.00;33.00;;;;;12.17;100.00;99923.50;6272107;20;3599218;-70
2022/10/24 07:47:47;;;;;;;;;45.67;37.00;;;;;12.15;100.00;99921.84;6274774;20;3609676;-69
2022/10/24 07:50:19;;;;;;;;;41.00;32.67;;;;;12.15;100.00;99924.56;6274062;20;3615881;-69
2022/10/24 07:52:48;;;;;;;;;40.50;35.00;;;;;12.23;100.00;99928.47;6291971;20;2840084;-69
2022/10/24 07:55:23;;;;;;;;;41.50;34.50;;;;;12.37;100.00;99930.25;6273177;20;2847155;-70
2022/10/24 07:57:52;;;;;;;;;37.00;33.00;;;;;12.38;100.00;99929.31;6302486;20;2839913;-70
2022/10/24 08:00:21;;;;;;;;;38.50;33.50;;;;;12.46;100.00;99935.06;6272685;20;2846176;-70
2022/10/24 08:02:51;;;;;;;;;42.00;33.00;;;;;12.35;100.00;99937.59;6271951;20;3599378;-72
2022/10/24 08:05:19;;;;;;;;;37.33;32.67;;;;;12.47;100.00;99941.31;6309106;20;3600244;-70
2022/10/24 08:07:50;;;;;;;;;38.00;32.33;;;;;12.52;100.00;99934.66;6272395;20;3577332;-73
2022/10/24 08:10:33;;;;;;;;;49.00;36.00;;;;;12.52;100.00;99929.25;6271947;20;3608720;-69
2022/10/24 08:13:02;;;;;;;;;43.50;35.00;;;;;12.63;100.00;99930.38;6268400;20;2846179;-70
2022/10/24 08:15:31;;;;;;;;;40.33;32.00;;;;;12.59;100.00;99939.66;6269067;20;3585676;-69
2022/10/24 08:18:01;;;;;;;;;39.00;34.00;;;;;12.59;100.00;99939.66;6258212;20;2841916;-69
2022/10/24 08:20:33;;;;;;;;;37.33;33.00;;;;;12.61;100.00;99949.34;6264761;20;3577534;-69
2022/10/24 08:23:03;;;;;;;;;36.67;32.67;;;;;12.53;100.00;99954.34;6259966;20;3598185;-69
2022/10/24 08:25:31;;;;;;;;;41.00;33.00;;;;;12.59;100.00;99945.03;6274303;20;3584144;-69
2022/10/24 08:28:01;;;;;;;;;37.67;33.00;;;;;12.59;100.00;99931.56;6271282;20;3571081;-72
2022/10/24 08:30:36;;;;;;;;;42.67;34.33;;;;;12.68;100.00;99928.25;6256640;20;2859919;-69
2022/10/24 08:33:06;;;;;;;;;44.33;34.00;;;;;12.82;100.00;99921.94;6295066;20;2855667;-68
2022/10/24 08:35:34;;;;;;;;;44.00;34.00;;;;;12.91;100.00;99926.72;6299981;20;3595228;-69
2022/10/24 08:38:04;;;;;;;;;45.33;37.00;;;;;12.72;100.00;99922.56;6264848;20;3603452;-70
2022/10/24 08:40:37;;;;;;;;;38.67;31.00;;;;;12.71;100.00;99917.25;6299961;20;3612875;-68
2022/10/24 08:43:11;;;;;;;;;46.50;35.50;;;;;13.01;100.00;99916.19;6292036;20;3614888;-69
2022/10/24 08:46:36;;;;;;;;;40.00;34.00;;;;;13.12;100.00;99917.16;6280185;20;3585689;-70
2022/10/24 08:49:49;;;;;;;;;40.67;34.33;;;;;13.34;100.00;99913.88;6271198;20;2857685;-70
2022/10/24 08:53:05;;;;;;;;;47.67;36.33;;;;;13.52;100.00;99908.19;6304654;20;3624216;-69
2022/10/24 08:55:54;;;;;;;;;40.67;34.67;;;;;13.51;100.00;99906.47;6308724;20;3596253;-68
2022/10/24 08:58:43;;;;;;;;;46.00;32.67;;;;;13.49;100.00;99906.56;6272454;20;3609619;-69
2022/10/24 09:01:37;;;;;;;;;39.67;33.67;;;;;13.54;100.00;99899.00;6301022;20;3585678;-67
2022/10/24 09:04:12;;;;;;;;;43.00;33.33;;;;;13.59;100.00;99909.50;6275562;20;3595245;-69
2022/10/24 09:06:43;;;;;;;;;40.33;35.33;;;;;13.70;100.00;99906.03;6272372;20;2863880;-68
2022/10/24 09:09:48;;;;;;;;;43.33;33.67;;;;;13.73;100.00;99903.97;6305285;20;2854560;-70
2022/10/24 09:12:20;;;;;;;;;43.00;34.67;;;;;13.84;100.00;99903.19;6301374;20;3599238;-69
2022/10/24 09:14:58;;;;;;;;;47.67;36.67;;;;;13.81;100.00;99901.56;6276351;20;3613799;-69
2022/10/24 09:17:34;;;;;;;;;40.33;33.00;;;;;13.87;100.00;99891.31;6275994;20;3598357;-67
2022/10/24 09:20:24;;;;;;;;;46.33;35.00;;;;;13.95;100.00;99888.91;6272451;20;3618027;-67
2022/10/24 09:22:59;;;;;;;;;45.67;36.33;;;;;14.22;100.00;99892.31;6307583;20;3600436;-67
2022/10/24 09:25:34;;;;;;;;;41.00;32.33;;;;;14.24;100.00;99892.19;6274641;20;3617951;-66
2022/10/24 09:28:05;;;;;;;;;45.33;35.67;;;;;14.40;100.00;99894.63;6310022;20;3586831;-67
2022/10/24 09:30:36;;;;;;;;;47.67;36.00;;;;;14.17;100.00;99894.50;6266056;20;3621204;-68
2022/10/24 09:33:33;;;;;;;;;40.67;32.67;;;;;14.24;100.00;99894.91;6304486;20;3591970;-67
2022/10/24 09:36:04;;;;;;;;;44.67;36.33;;;;;14.54;100.00;99890.94;6275853;20;3589839;-67
2022/10/24 09:38:40;;;;;;;;;50.00;33.67;;;;;14.31;100.00;99890.78;6275060;20;3610698;-68
2022/10/24 09:41:27;;;;;;;;;40.33;34.67;;;;;14.50;100.00;99892.97;6305440;20;3584211;-67
2022/10/24 09:44:00;;;;;;;;;43.00;34.00;;;;;14.69;100.00;99879.84;6270627;20;2851382;-67
2022/10/24 09:46:44;;;;;;;;;45.67;35.00;;;;;15.12;100.00;99876.56;6302012;20;3609851;-67
2022/10/24 09:49:16;;;;;;;;;44.00;32.67;;;;;14.82;100.00;99878.91;6311154;20;3605441;-68
2022/10/24 09:52:12;;;;;;;;;45.00;37.00;;;;;14.71;100.00;99872.47;6280723;20;3597288;-68
2022/10/24 09:54:43;;;;;;;;;40.00;35.00;;;;;14.98;100.00;99876.78;6269417;20;2855650;-68
2022/10/24 09:57:16;;;;;;;;;47.33;36.33;;;;;15.14;100.00;99871.03;6306052;20;3613865;-67
2022/10/24 09:59:59;;;;;;;;;39.67;32.67;;;;;14.64;100.00;99871.22;6273853;20;3581581;-67
2022/10/24 10:02:33;;;;;;;;;43.00;33.00;;;;;14.85;100.00;99867.84;6274748;20;3591912;-68
2022/10/24 10:05:02;;;;;;;;;47.00;35.00;;;;;14.93;100.00;99881.66;6306578;20;3605480;-70
2022/10/24 10:07:47;;;;;;;;;44.33;34.00;;;;;14.89;100.00;99886.44;6276345;20;3606514;-70
2022/10/24 10:10:34;;;;;;;;;48.67;38.67;;;;;15.05;100.00;99888.81;6276041;20;3605595;-68
2022/10/24 10:13:23;;;;;;;;;40.00;31.00;;;;;15.41;100.00;99886.94;6269705;20;3633617;-67
2022/10/24 10:16:00;;;;;;;;;50.33;37.67;;;;;15.42;100.00;99893.22;6308896;20;3604440;-67
2022/10/24 10:18:38;;;;;;;;;36.00;30.00;;;;;15.54;100.00;99893.13;6270587;20;3565020;-66
2022/10/24 10:21:15;;;;;;;;;42.00;35.67;;;;;15.25;100.00;99886.44;6272177;20;2859748;-68
2022/10/24 10:23:55;;;;;;;;;44.33;33.33;;;;;15.43;100.00;99885.00;6307888;20;3597168;-68
2022/10/24 10:26:46;;;;;;;;;38.33;33.33;;;;;15.52;100.00;99886.09;6268765;20;2846726;-68
2022/10/24 10:29:18;;;;;;;;;49.50;36.50;;;;;15.48;100.00;99888.19;6304798;20;3479427;-68
2022/10/24 10:31:57;;;;;;;;;44.00;33.00;;;;;15.43;100.00;99886.81;6308379;20;3601544;-68
2022/10/24 10:34:49;;;;;;;;;42.00;34.33;;;;;15.51;100.00;99882.53;6277692;20;3589978;-68
2022/10/24 10:37:34;;;;;;;;;39.00;34.00;;;;;15.52;100.00;99884.25;6278527;20;3581644;-68
2022/10/24 10:40:45;;;;;;;;;44.00;36.00;;;;;15.57;100.00;99884.75;6268731;20;2860810;-67
2022/10/24 10:44:21;;;;;;;;;54.25;41.25;;;;;15.54;100.00;99887.69;6304055;20;3646115;-68
2022/10/24 10:47:03;;;;;;;;;52.50;38.25;;;;;15.44;100.00;99875.88;6301702;20;3625299;-69
2022/10/24 10:49:38;;;;;;;;;50.67;41.33;;;;;15.71;100.00;99880.13;6304080;20;3608656;-69
2022/10/24 10:52:47;;;;;;;;;47.67;38.00;;;;;15.66;100.00;99879.59;6277450;20;3609711;-68
2022/10/24 10:55:46;;;;;;;;;45.33;35.67;;;;;15.69;100.00;99888.38;6269906;20;3600328;-69
2022/10/24 10:59:07;;;;;;;;;42.67;33.33;;;;;15.47;100.00;99859.41;6271306;20;2850358;-69
2022/10/24 11:02:12;;;;;;;;;44.33;37.00;;;;;15.62;100.00;99875.41;6304633;20;3605512;-68
2022/10/24 11:05:16;;;;;;;;;42.67;33.67;;;;;15.66;100.00;99864.19;6275506;20;3595077;-69
2022/10/24 11:08:17;;;;;;;;;38.00;29.67;;;;;15.77;100.00;99856.13;6276671;20;3603463;-68
2022/10/24 11:10:59;;;;;;;;;40.00;32.75;;;;;15.75;100.00;99849.13;6276323;20;3614888;-68
2022/10/24 11:13:50;;;;;;;;;44.67;34.67;;;;;15.70;100.00;99843.22;6300748;20;3585699;-68
2022/10/24 11:16:28;;;;;;;;;43.25;32.00;;;;;15.90;100.00;99834.31;6273457;20;3642028;-70
2022/10/24 11:19:27;;;;;;;;;31.33;28.67;;;;;15.79;100.00;99837.03;6304157;20;3617070;-66
2022/10/24 11:22:03;;;;;;;;;43.25;31.50;;;;;15.87;100.00;99833.72;6271635;20;3607694;-67
2022/10/24 11:24:46;;;;;;;;;36.67;31.67;;;;;15.79;100.00;99820.78;6305989;20;3583611;-66
2022/10/24 11:27:33;;;;;;;;;42.00;32.00;;;;;15.73;100.00;99824.00;6270275;20;2751287;-68
2022/10/24 11:30:16;;;;;;;;;28.33;28.33;;;;;15.87;100.00;99831.84;6267738;20;3598225;-68
2022/10/24 11:33:06;;;;;;;;;41.67;30.67;;;;;16.08;100.00;99831.09;6275216;20;3624227;-68
2022/10/24 11:36:12;;;;;;;;;38.75;31.00;;;;;16.00;100.00;99834.44;6273853;20;3627535;-68